createdAt,value
2022-12-23T00:02:21.092Z,18.40
2022-12-23T00:07:47.807Z,7.77
2022-12-23T00:13:21.679Z,7.73
2022-12-23T00:18:33.302Z,8.63
2022-12-23T00:23:57.072Z,7.77
2022-12-23T00:29:29.152Z,7.20
2022-12-23T00:34:58.164Z,8.97
2022-12-23T00:40:32.852Z,13.90
2022-12-23T00:45:44.514Z,8.73
2022-12-23T00:50:56.313Z,7.50
2022-12-23T01:07:41.888Z,11.93
2022-12-23T01:12:58.564Z,11.87
2022-12-23T01:18:08.025Z,8.37
2022-12-23T01:23:26.183Z,7.33
2022-12-23T01:34:02.926Z,11.03
2022-12-23T01:39:17.862Z,8.33
2022-12-23T01:45:16.871Z,9.77
2022-12-23T01:50:37.499Z,8.67
2022-12-23T01:56:05.593Z,8.13
2022-12-23T02:01:30.236Z,7.73
2022-12-23T02:07:08.229Z,5.33
2022-12-23T02:12:46.828Z,8.80
2022-12-23T02:18:27.209Z,5.07
2022-12-23T02:24:05.696Z,8.10
2022-12-23T02:29:28.657Z,6.57
2022-12-23T02:35:04.997Z,5.97
2022-12-23T02:40:59.219Z,7.83
2022-12-23T02:46:37.535Z,23.17
2022-12-23T02:51:53.290Z,12.50
2022-12-23T02:57:06.033Z,10.40
2022-12-23T03:02:23.819Z,8.80
2022-12-23T03:07:45.512Z,10.13
2022-12-23T03:13:19.344Z,9.17
2022-12-23T03:18:54.689Z,15.63
2022-12-23T03:24:17.126Z,12.27
2022-12-23T03:35:45.251Z,10.17
2022-12-23T03:40:57.653Z,10.30
2022-12-23T03:46:29.772Z,13.07
2022-12-23T03:51:56.620Z,11.77
2022-12-23T03:57:06.694Z,9.47
2022-12-23T04:02:53.868Z,10.23
2022-12-23T04:08:14.256Z,7.23
2022-12-23T04:13:26.289Z,7.03
2022-12-23T04:18:32.198Z,7.60
2022-12-23T04:29:05.422Z,7.73
2022-12-23T04:34:18.552Z,7.07
2022-12-23T04:39:29.220Z,9.83
2022-12-23T04:44:34.449Z,7.27
2022-12-23T04:55:04.062Z,11.83
2022-12-23T05:00:16.509Z,12.93
2022-12-23T05:05:47.355Z,6.43
2022-12-23T05:10:52.641Z,5.70
2022-12-23T05:16:01.783Z,7.10
2022-12-23T05:21:13.857Z,8.40
2022-12-23T05:26:21.294Z,9.00
2022-12-23T05:31:30.941Z,8.90
2022-12-23T05:36:36.236Z,8.90
2022-12-23T05:47:17.578Z,14.77
2022-12-23T05:52:27.018Z,12.00
2022-12-23T05:57:36.914Z,10.13
2022-12-23T06:02:51.760Z,12.43
2022-12-23T06:07:56.470Z,13.27
2022-12-23T06:13:13.147Z,10.73
2022-12-23T06:18:35.616Z,8.07
2022-12-23T06:23:50.641Z,14.23
2022-12-23T06:28:59.172Z,8.13
2022-12-23T06:34:13.101Z,10.53
2022-12-23T06:40:02.710Z,9.00
2022-12-23T06:45:19.885Z,14.93
2022-12-23T06:50:30.187Z,12.90
2022-12-23T06:56:10.935Z,15.40
2022-12-23T07:01:27.573Z,13.43
2022-12-23T07:06:41.826Z,11.23
2022-12-23T07:11:49.975Z,18.73
2022-12-23T07:17:11.332Z,23.00
2022-12-23T07:22:31.212Z,22.07
2022-12-23T07:27:43.714Z,24.53
2022-12-23T07:39:01.100Z,14.67
2022-12-23T07:44:14.536Z,23.47
2022-12-23T07:49:25.533Z,15.20
2022-12-23T07:55:03.511Z,22.73
2022-12-23T08:05:49.404Z,33.87
2022-12-23T08:11:24.495Z,27.73
2022-12-23T08:16:57.639Z,43.00
2022-12-23T08:27:41.226Z,33.97
2022-12-23T08:32:51.699Z,28.60
2022-12-23T08:49:29.296Z,28.03
2022-12-23T08:54:41.930Z,29.97
2022-12-23T08:59:59.756Z,22.87
2022-12-23T09:05:27.566Z,14.40
2022-12-23T09:11:02.247Z,28.13
2022-12-23T09:16:37.335Z,26.00
2022-12-23T09:23:43.880Z,27.10
2022-12-23T09:27:41.632Z,25.30
2022-12-23T09:32:56.104Z,23.17
2022-12-23T09:38:11.765Z,20.40
2022-12-23T09:43:21.124Z,18.30
2022-12-23T09:48:29.771Z,30.77
2022-12-23T09:53:38.206Z,18.90
2022-12-23T10:04:25.013Z,26.73
2022-12-23T10:09:32.626Z,30.30
2022-12-23T10:14:40.423Z,34.70
2022-12-23T10:20:15.463Z,33.70
2022-12-23T10:25:34.315Z,33.53
2022-12-23T10:31:05.965Z,25.93
2022-12-23T10:42:43.328Z,26.43
2022-12-23T10:53:52.566Z,25.90
2022-12-23T10:59:01.182Z,24.70
2022-12-23T11:04:29.610Z,22.93
2022-12-23T11:16:01.741Z,21.03
2022-12-23T11:21:37.249Z,25.10
2022-12-23T11:26:45.545Z,27.53
2022-12-23T11:31:54.894Z,25.63
2022-12-23T11:37:07.150Z,28.53
2022-12-23T11:47:41.895Z,25.33
2022-12-23T11:53:30.607Z,25.37
2022-12-23T11:59:13.345Z,22.03
2022-12-23T12:04:27.372Z,21.57
2022-12-23T12:09:41.371Z,29.17
2022-12-23T12:15:04.571Z,43.17
2022-12-23T12:20:56.193Z,36.33
2022-12-23T12:26:11.045Z,35.43
2022-12-23T12:31:36.376Z,58.00
2022-12-23T12:37:26.318Z,40.80
2022-12-23T12:48:26.137Z,32.33
2022-12-23T12:53:39.863Z,29.50
2022-12-23T12:58:54.639Z,14.17
2022-12-23T13:04:27.436Z,25.93
2022-12-23T13:15:57.852Z,31.03
2022-12-23T13:26:44.533Z,16.00
2022-12-23T13:32:17.513Z,19.67
2022-12-23T13:37:43.361Z,22.13
2022-12-23T13:42:51.659Z,25.50
2022-12-23T13:48:30.676Z,27.80
2022-12-23T13:54:16.851Z,21.33
2022-12-23T13:59:56.348Z,31.80
2022-12-23T14:05:51.110Z,26.43
2022-12-23T14:17:12.055Z,39.87
2022-12-23T14:22:38.331Z,28.57
2022-12-23T14:28:12.001Z,17.43
2022-12-23T14:33:34.315Z,16.33
2022-12-23T14:49:51.845Z,26.77
2022-12-23T14:55:53.338Z,20.30
2022-12-23T15:01:14.990Z,21.73
2022-12-23T15:12:17.476Z,14.80
2022-12-23T15:17:49.727Z,13.40
2022-12-23T15:23:31.425Z,13.53
2022-12-23T15:28:45.926Z,20.50
2022-12-23T15:34:06.114Z,22.83
2022-12-23T15:40:03.345Z,18.03
2022-12-23T15:45:40.871Z,10.93
2022-12-23T15:51:01.904Z,13.23
2022-12-23T15:56:11.643Z,15.47
2022-12-23T16:18:47.186Z,31.70
2022-12-23T16:24:10.620Z,23.60
2022-12-23T16:41:02.298Z,22.20
2022-12-23T16:46:09.146Z,21.17
2022-12-23T16:51:18.547Z,18.63
2022-12-23T16:56:28.379Z,24.43
2022-12-23T17:01:38.829Z,21.13
2022-12-23T17:07:05.272Z,27.60
2022-12-23T17:12:21.502Z,26.13
2022-12-23T17:17:27.959Z,24.67
2022-12-23T17:22:34.932Z,20.80
2022-12-23T17:27:42.619Z,37.37
2022-12-23T17:32:56.023Z,39.70
2022-12-23T17:38:07.777Z,39.20
2022-12-23T17:43:18.121Z,22.27
2022-12-23T17:48:32.191Z,19.77
2022-12-23T17:53:37.631Z,16.67
2022-12-23T18:04:18.477Z,14.90
2022-12-23T18:09:30.572Z,17.83
2022-12-23T18:14:36.008Z,20.10
2022-12-23T18:25:30.931Z,29.27
2022-12-23T18:30:43.987Z,14.40
2022-12-23T18:35:51.003Z,17.97
2022-12-23T18:46:45.687Z,23.53
2022-12-23T18:52:23.873Z,24.20
2022-12-23T18:57:46.158Z,23.83
2022-12-23T19:02:56.921Z,22.50
2022-12-23T19:08:07.620Z,19.53
2022-12-23T19:13:14.430Z,21.97
2022-12-23T19:18:26.105Z,16.47
